sensor_id;sensor_type;location;lat;lon;timestamp;pressure;altitude;pressure_sealevel;temperature;humidity
34243;BME280;20504;43.214;27.920;2023-04-16T00:00:36;100689.00;;;17.53;100.00
34243;BME280;20504;43.214;27.920;2023-04-16T00:03:01;100697.16;;;17.61;100.00
34243;BME280;20504;43.214;27.920;2023-04-16T00:05:27;100675.88;;;17.50;100.00
34243;BME280;20504;43.214;27.920;2023-04-16T00:07:52;100676.25;;;17.45;100.00
34243;BME280;20504;43.214;27.920;2023-04-16T00:10:18;100673.00;;;17.42;100.00
34243;BME280;20504;43.214;27.920;2023-04-16T00:12:43;100671.34;;;17.50;100.00
34243;BME280;20504;43.214;27.920;2023-04-16T00:15:09;100672.59;;;17.56;100.00
34243;BME280;20504;43.214;27.920;2023-04-16T00:17:35;100655.66;;;17.65;100.00
34243;BME280;20504;43.214;27.920;2023-04-16T00:20:00;100661.59;;;17.59;100.00
34243;BME280;20504;43.214;27.920;2023-04-16T00:22:26;100638.31;;;17.50;100.00
34243;BME280;20504;43.214;27.920;2023-04-16T00:24:51;100663.44;;;17.59;100.00
34243;BME280;20504;43.214;27.920;2023-04-16T00:27:17;100657.34;;;17.66;100.00
34243;BME280;20504;43.214;27.920;2023-04-16T00:29:43;100648.34;;;17.58;100.00
34243;BME280;20504;43.214;27.920;2023-04-16T00:32:08;100654.25;;;17.61;100.00
34243;BME280;20504;43.214;27.920;2023-04-16T00:34:34;100642.97;;;17.58;100.00
34243;BME280;20504;43.214;27.920;2023-04-16T00:36:59;100650.16;;;17.57;100.00
34243;BME280;20504;43.214;27.920;2023-04-16T00:39:25;100664.53;;;17.46;100.00
34243;BME280;20504;43.214;27.920;2023-04-16T00:41:50;100657.78;;;17.52;100.00
34243;BME280;20504;43.214;27.920;2023-04-16T00:44:16;100644.09;;;17.55;100.00
34243;BME280;20504;43.214;27.920;2023-04-16T00:46:41;100639.06;;;17.71;100.00
34243;BME280;20504;43.214;27.920;2023-04-16T00:49:07;100648.38;;;17.77;100.00
34243;BME280;20504;43.214;27.920;2023-04-16T00:51:34;100653.97;;;17.64;100.00
34243;BME280;20504;43.214;27.920;2023-04-16T00:54:00;100648.34;;;17.48;100.00
34243;BME280;20504;43.214;27.920;2023-04-16T00:56:27;100661.16;;;17.64;100.00
34243;BME280;20504;43.214;27.920;2023-04-16T00:58:53;100651.00;;;17.58;100.00
34243;BME280;20504;43.214;27.920;2023-04-16T01:01:19;100664.28;;;17.59;100.00
34243;BME280;20504;43.214;27.920;2023-04-16T01:03:45;100661.31;;;17.52;100.00
34243;BME280;20504;43.214;27.920;2023-04-16T01:06:12;100639.44;;;17.57;100.00
34243;BME280;20504;43.214;27.920;2023-04-16T01:08:38;100633.38;;;17.55;100.00
34243;BME280;20504;43.214;27.920;2023-04-16T01:11:03;100632.09;;;17.59;100.00
34243;BME280;20504;43.214;27.920;2023-04-16T01:13:29;100631.97;;;17.61;100.00
34243;BME280;20504;43.214;27.920;2023-04-16T01:15:55;100629.97;;;17.63;100.00
34243;BME280;20504;43.214;27.920;2023-04-16T01:18:22;100635.91;;;17.47;100.00
34243;BME280;20504;43.214;27.920;2023-04-16T01:20:48;100632.81;;;17.51;100.00
34243;BME280;20504;43.214;27.920;2023-04-16T01:23:14;100621.25;;;17.51;100.00
34243;BME280;20504;43.214;27.920;2023-04-16T01:25:40;100608.25;;;17.56;100.00
34243;BME280;20504;43.214;27.920;2023-04-16T01:28:06;100602.88;;;17.56;100.00
34243;BME280;20504;43.214;27.920;2023-04-16T01:30:33;100617.88;;;17.68;100.00
34243;BME280;20504;43.214;27.920;2023-04-16T01:32:59;100589.19;;;17.59;100.00
34243;BME280;20504;43.214;27.920;2023-04-16T01:35:25;100609.06;;;17.66;100.00
34243;BME280;20504;43.214;27.920;2023-04-16T01:37:51;100608.22;;;17.66;100.00
34243;BME280;20504;43.214;27.920;2023-04-16T01:40:17;100598.81;;;17.71;100.00
34243;BME280;20504;43.214;27.920;2023-04-16T01:42:42;100593.31;;;17.73;100.00
34243;BME280;20504;43.214;27.920;2023-04-16T01:45:08;100603.03;;;17.83;100.00
34243;BME280;20504;43.214;27.920;2023-04-16T01:47:33;100602.03;;;17.84;100.00
34243;BME280;20504;43.214;27.920;2023-04-16T01:49:59;100614.47;;;17.85;100.00
34243;BME280;20504;43.214;27.920;2023-04-16T01:52:25;100604.31;;;17.89;100.00
34243;BME280;20504;43.214;27.920;2023-04-16T01:54:50;100597.66;;;17.93;100.00
34243;BME280;20504;43.214;27.920;2023-04-16T01:57:16;100604.72;;;17.84;100.00
34243;BME280;20504;43.214;27.920;2023-04-16T01:59:41;100625.22;;;17.85;100.00
34243;BME280;20504;43.214;27.920;2023-04-16T02:02:09;100621.69;;;17.75;100.00
34243;BME280;20504;43.214;27.920;2023-04-16T02:04:43;100622.09;;;17.80;100.00
34243;BME280;20504;43.214;27.920;2023-04-16T02:07:09;100626.06;;;17.76;100.00
34243;BME280;20504;43.214;27.920;2023-04-16T02:09:36;100617.56;;;17.81;100.00
34243;BME280;20504;43.214;27.920;2023-04-16T02:12:02;100616.47;;;17.74;100.00
34243;BME280;20504;43.214;27.920;2023-04-16T02:14:28;100615.63;;;17.73;100.00
34243;BME280;20504;43.214;27.920;2023-04-16T02:16:54;100597.09;;;17.61;100.00
34243;BME280;20504;43.214;27.920;2023-04-16T02:19:20;100602.34;;;17.52;100.00
34243;BME280;20504;43.214;27.920;2023-04-16T02:21:46;100614.75;;;17.53;100.00
34243;BME280;20504;43.214;27.920;2023-04-16T02:24:12;100611.06;;;17.45;100.00
34243;BME280;20504;43.214;27.920;2023-04-16T02:26:38;100609.94;;;17.57;100.00
34243;BME280;20504;43.214;27.920;2023-04-16T02:29:03;100590.75;;;17.52;100.00
34243;BME280;20504;43.214;27.920;2023-04-16T02:31:29;100598.09;;;17.50;100.00
34243;BME280;20504;43.214;27.920;2023-04-16T02:33:55;100591.88;;;17.59;100.00
34243;BME280;20504;43.214;27.920;2023-04-16T02:36:21;100591.59;;;17.52;100.00
34243;BME280;20504;43.214;27.920;2023-04-16T02:38:47;100576.06;;;17.56;100.00
34243;BME280;20504;43.214;27.920;2023-04-16T02:41:12;100560.56;;;17.50;100.00
34243;BME280;20504;43.214;27.920;2023-04-16T02:43:38;100568.00;;;17.66;100.00
34243;BME280;20504;43.214;27.920;2023-04-16T02:46:03;100583.69;;;17.61;100.00
34243;BME280;20504;43.214;27.920;2023-04-16T02:48:29;100575.81;;;17.69;100.00
34243;BME280;20504;43.214;27.920;2023-04-16T02:50:54;100563.78;;;17.63;100.00
34243;BME280;20504;43.214;27.920;2023-04-16T02:53:20;100583.03;;;17.68;100.00
34243;BME280;20504;43.214;27.920;2023-04-16T02:55:52;100588.22;;;17.60;100.00
34243;BME280;20504;43.214;27.920;2023-04-16T02:58:21;100570.97;;;17.63;100.00
34243;BME280;20504;43.214;27.920;2023-04-16T03:00:48;100565.31;;;17.66;100.00
34243;BME280;20504;43.214;27.920;2023-04-16T03:03:14;100552.38;;;17.71;100.00
34243;BME280;20504;43.214;27.920;2023-04-16T03:05:39;100568.03;;;17.75;100.00
34243;BME280;20504;43.214;27.920;2023-04-16T03:08:05;100560.69;;;17.58;100.00
34243;BME280;20504;43.214;27.920;2023-04-16T03:10:31;100560.28;;;17.72;100.00
34243;BME280;20504;43.214;27.920;2023-04-16T03:12:56;100560.25;;;17.82;100.00
34243;BME280;20504;43.214;27.920;2023-04-16T03:15:22;100567.16;;;17.84;100.00
34243;BME280;20504;43.214;27.920;2023-04-16T03:17:48;100586.38;;;17.80;100.00
34243;BME280;20504;43.214;27.920;2023-04-16T03:20:13;100577.03;;;17.84;100.00
34243;BME280;20504;43.214;27.920;2023-04-16T03:22:41;100584.38;;;17.92;100.00
34243;BME280;20504;43.214;27.920;2023-04-16T03:25:07;100580.28;;;17.97;100.00
34243;BME280;20504;43.214;27.920;2023-04-16T03:27:33;100574.34;;;17.84;100.00
34243;BME280;20504;43.214;27.920;2023-04-16T03:29:59;100593.72;;;17.78;100.00
34243;BME280;20504;43.214;27.920;2023-04-16T03:32:24;100585.66;;;17.88;100.00
34243;BME280;20504;43.214;27.920;2023-04-16T03:34:50;100599.34;;;17.94;100.00
34243;BME280;20504;43.214;27.920;2023-04-16T03:37:15;100603.84;;;18.03;100.00
34243;BME280;20504;43.214;27.920;2023-04-16T03:39:41;100595.38;;;18.08;100.00
34243;BME280;20504;43.214;27.920;2023-04-16T03:42:06;100611.56;;;18.16;100.00
34243;BME280;20504;43.214;27.920;2023-04-16T03:44:32;100595.38;;;18.08;100.00
34243;BME280;20504;43.214;27.920;2023-04-16T03:46:57;100604.25;;;18.08;100.00
34243;BME280;20504;43.214;27.920;2023-04-16T03:49:23;100615.25;;;18.15;100.00
34243;BME280;20504;43.214;27.920;2023-04-16T03:51:48;100623.59;;;18.12;100.00
34243;BME280;20504;43.214;27.920;2023-04-16T03:54:14;100634.19;;;18.23;100.00
34243;BME280;20504;43.214;27.920;2023-04-16T03:56:39;100652.53;;;18.18;100.00
34243;BME280;20504;43.214;27.920;2023-04-16T03:59:05;100650.09;;;18.34;100.00
34243;BME280;20504;43.214;27.920;2023-04-16T04:01:31;100647.41;;;18.34;100.00
34243;BME280;20504;43.214;27.920;2023-04-16T04:03:57;100665.50;;;18.42;100.00
34243;BME280;20504;43.214;27.920;2023-04-16T04:06:22;100664.22;;;18.36;100.00
34243;BME280;20504;43.214;27.920;2023-04-16T04:08:49;100680.28;;;18.56;100.00
34243;BME280;20504;43.214;27.920;2023-04-16T04:11:14;100687.97;;;18.41;100.00
34243;BME280;20504;43.214;27.920;2023-04-16T04:13:40;100696.16;;;18.39;100.00
34243;BME280;20504;43.214;27.920;2023-04-16T04:16:06;100685.00;;;18.44;100.00
34243;BME280;20504;43.214;27.920;2023-04-16T04:18:31;100689.66;;;18.42;100.00
34243;BME280;20504;43.214;27.920;2023-04-16T04:20:56;100687.81;;;18.42;100.00
34243;BME280;20504;43.214;27.920;2023-04-16T04:23:22;100688.94;;;18.50;100.00
34243;BME280;20504;43.214;27.920;2023-04-16T04:25:48;100673.97;;;18.47;100.00
34243;BME280;20504;43.214;27.920;2023-04-16T04:28:13;100710.09;;;18.72;100.00
34243;BME280;20504;43.214;27.920;2023-04-16T04:30:39;100708.91;;;18.84;100.00
34243;BME280;20504;43.214;27.920;2023-04-16T04:33:05;100717.94;;;18.93;100.00
34243;BME280;20504;43.214;27.920;2023-04-16T04:35:31;100716.91;;;19.03;100.00
34243;BME280;20504;43.214;27.920;2023-04-16T04:37:56;100728.88;;;19.09;100.00
34243;BME280;20504;43.214;27.920;2023-04-16T04:40:22;100741.25;;;19.29;100.00
34243;BME280;20504;43.214;27.920;2023-04-16T04:42:47;100754.81;;;19.38;100.00
34243;BME280;20504;43.214;27.920;2023-04-16T04:45:13;100762.94;;;19.46;100.00
34243;BME280;20504;43.214;27.920;2023-04-16T04:47:38;100762.50;;;19.50;100.00
34243;BME280;20504;43.214;27.920;2023-04-16T04:50:04;100775.44;;;19.74;100.00
34243;BME280;20504;43.214;27.920;2023-04-16T04:52:30;100777.34;;;19.82;100.00
34243;BME280;20504;43.214;27.920;2023-04-16T04:54:55;100789.75;;;19.92;100.00
34243;BME280;20504;43.214;27.920;2023-04-16T04:57:21;100816.09;;;20.07;100.00
34243;BME280;20504;43.214;27.920;2023-04-16T04:59:46;100832.59;;;20.21;100.00
34243;BME280;20504;43.214;27.920;2023-04-16T05:02:12;100844.84;;;20.34;100.00
34243;BME280;20504;43.214;27.920;2023-04-16T05:04:37;100862.09;;;20.41;100.00
34243;BME280;20504;43.214;27.920;2023-04-16T05:07:03;100871.81;;;20.51;100.00
34243;BME280;20504;43.214;27.920;2023-04-16T05:09:28;100867.72;;;20.47;100.00
34243;BME280;20504;43.214;27.920;2023-04-16T05:11:54;100892.66;;;20.67;100.00
34243;BME280;20504;43.214;27.920;2023-04-16T05:14:19;100910.59;;;20.76;100.00
34243;BME280;20504;43.214;27.920;2023-04-16T05:16:45;100932.84;;;20.78;100.00
34243;BME280;20504;43.214;27.920;2023-04-16T05:19:10;100923.75;;;20.79;100.00
34243;BME280;20504;43.214;27.920;2023-04-16T05:21:36;100952.69;;;20.95;100.00
34243;BME280;20504;43.214;27.920;2023-04-16T05:24:01;100966.19;;;20.95;100.00
34243;BME280;20504;43.214;27.920;2023-04-16T05:26:27;100971.41;;;20.79;100.00
34243;BME280;20504;43.214;27.920;2023-04-16T05:28:52;100974.59;;;20.74;100.00
34243;BME280;20504;43.214;27.920;2023-04-16T05:31:18;100977.91;;;20.86;100.00
34243;BME280;20504;43.214;27.920;2023-04-16T05:33:43;100979.91;;;21.02;100.00
34243;BME280;20504;43.214;27.920;2023-04-16T05:36:09;100988.38;;;21.07;100.00
34243;BME280;20504;43.214;27.920;2023-04-16T05:38:34;100980.28;;;21.25;100.00
34243;BME280;20504;43.214;27.920;2023-04-16T05:41:00;100983.63;;;21.44;100.00
34243;BME280;20504;43.214;27.920;2023-04-16T05:43:25;100987.28;;;21.61;100.00
34243;BME280;20504;43.214;27.920;2023-04-16T05:45:50;100983.84;;;21.77;100.00
34243;BME280;20504;43.214;27.920;2023-04-16T05:48:16;100999.03;;;21.78;100.00
34243;BME280;20504;43.214;27.920;2023-04-16T05:50:41;101001.81;;;21.94;100.00
34243;BME280;20504;43.214;27.920;2023-04-16T05:53:08;100989.63;;;21.90;100.00
34243;BME280;20504;43.214;27.920;2023-04-16T05:55:34;101019.28;;;22.08;100.00
34243;BME280;20504;43.214;27.920;2023-04-16T05:58:02;101013.31;;;22.30;100.00
34243;BME280;20504;43.214;27.920;2023-04-16T06:00:30;101030.41;;;22.39;100.00
34243;BME280;20504;43.214;27.920;2023-04-16T06:02:55;101041.56;;;22.44;100.00
34243;BME280;20504;43.214;27.920;2023-04-16T06:05:21;101028.47;;;22.23;100.00
34243;BME280;20504;43.214;27.920;2023-04-16T06:07:46;101059.22;;;21.96;100.00
34243;BME280;20504;43.214;27.920;2023-04-16T06:10:12;101045.78;;;22.04;100.00
34243;BME280;20504;43.214;27.920;2023-04-16T06:12:37;101044.91;;;22.04;100.00
34243;BME280;20504;43.214;27.920;2023-04-16T06:15:04;101026.22;;;22.11;100.00
34243;BME280;20504;43.214;27.920;2023-04-16T06:17:29;101021.19;;;22.16;100.00
34243;BME280;20504;43.214;27.920;2023-04-16T06:19:55;101041.81;;;22.17;100.00
34243;BME280;20504;43.214;27.920;2023-04-16T06:22:20;101035.63;;;22.32;100.00
34243;BME280;20504;43.214;27.920;2023-04-16T06:24:48;101037.75;;;22.21;100.00
34243;BME280;20504;43.214;27.920;2023-04-16T06:27:14;101048.25;;;22.24;100.00
34243;BME280;20504;43.214;27.920;2023-04-16T06:29:39;101059.41;;;22.29;100.00
34243;BME280;20504;43.214;27.920;2023-04-16T06:32:04;101046.56;;;22.23;100.00
34243;BME280;20504;43.214;27.920;2023-04-16T06:34:30;101077.56;;;21.67;100.00
34243;BME280;20504;43.214;27.920;2023-04-16T06:36:55;101066.13;;;22.17;100.00
34243;BME280;20504;43.214;27.920;2023-04-16T06:39:21;101060.50;;;22.10;100.00
34243;BME280;20504;43.214;27.920;2023-04-16T06:41:47;101060.31;;;22.46;100.00
34243;BME280;20504;43.214;27.920;2023-04-16T06:44:13;101059.16;;;22.99;100.00
34243;BME280;20504;43.214;27.920;2023-04-16T06:46:39;101062.75;;;23.40;100.00
34243;BME280;20504;43.214;27.920;2023-04-16T06:49:05;101069.16;;;23.22;100.00
34243;BME280;20504;43.214;27.920;2023-04-16T06:51:30;101086.78;;;23.59;100.00
34243;BME280;20504;43.214;27.920;2023-04-16T06:53:56;101099.94;;;23.21;100.00
34243;BME280;20504;43.214;27.920;2023-04-16T06:56:21;101105.34;;;23.13;100.00
34243;BME280;20504;43.214;27.920;2023-04-16T06:58:47;101103.66;;;23.12;100.00
34243;BME280;20504;43.214;27.920;2023-04-16T07:01:12;101108.69;;;22.99;100.00
34243;BME280;20504;43.214;27.920;2023-04-16T07:03:38;101109.44;;;23.34;100.00
34243;BME280;20504;43.214;27.920;2023-04-16T07:06:03;101127.56;;;22.83;100.00
34243;BME280;20504;43.214;27.920;2023-04-16T07:08:29;101147.03;;;21.83;100.00
34243;BME280;20504;43.214;27.920;2023-04-16T07:10:54;101144.31;;;22.00;100.00
34243;BME280;20504;43.214;27.920;2023-04-16T07:13:20;101112.16;;;21.45;100.00
34243;BME280;20504;43.214;27.920;2023-04-16T07:15:46;101122.94;;;21.45;100.00
34243;BME280;20504;43.214;27.920;2023-04-16T07:18:12;101116.47;;;21.38;100.00
34243;BME280;20504;43.214;27.920;2023-04-16T07:20:37;101112.06;;;21.37;100.00
34243;BME280;20504;43.214;27.920;2023-04-16T07:23:03;101099.97;;;21.41;100.00
34243;BME280;20504;43.214;27.920;2023-04-16T07:25:28;101093.47;;;21.34;100.00
34243;BME280;20504;43.214;27.920;2023-04-16T07:27:54;101094.31;;;21.35;100.00
34243;BME280;20504;43.214;27.920;2023-04-16T07:30:19;101076.75;;;21.49;100.00
34243;BME280;20504;43.214;27.920;2023-04-16T07:32:45;101082.25;;;21.83;100.00
34243;BME280;20504;43.214;27.920;2023-04-16T07:35:10;101074.47;;;22.05;100.00
34243;BME280;20504;43.214;27.920;2023-04-16T07:37:35;101032.19;;;22.22;100.00
34243;BME280;20504;43.214;27.920;2023-04-16T07:40:01;101058.66;;;22.95;100.00
34243;BME280;20504;43.214;27.920;2023-04-16T07:42:26;101064.94;;;23.36;100.00
34243;BME280;20504;43.214;27.920;2023-04-16T07:44:53;101082.72;;;23.55;100.00
34243;BME280;20504;43.214;27.920;2023-04-16T07:47:19;101099.84;;;23.64;100.00
34243;BME280;20504;43.214;27.920;2023-04-16T07:49:44;101110.81;;;23.46;100.00
34243;BME280;20504;43.214;27.920;2023-04-16T07:52:10;101109.63;;;23.56;100.00
34243;BME280;20504;43.214;27.920;2023-04-16T07:54:36;101103.50;;;23.38;100.00
34243;BME280;20504;43.214;27.920;2023-04-16T07:57:01;101113.03;;;23.75;100.00
34243;BME280;20504;43.214;27.920;2023-04-16T07:59:27;101124.34;;;23.78;100.00
34243;BME280;20504;43.214;27.920;2023-04-16T08:01:52;101127.41;;;23.67;100.00
34243;BME280;20504;43.214;27.920;2023-04-16T08:04:19;101114.91;;;23.82;100.00
34243;BME280;20504;43.214;27.920;2023-04-16T08:06:49;101108.75;;;23.97;100.00
34243;BME280;20504;43.214;27.920;2023-04-16T08:09:15;101127.06;;;24.03;100.00
34243;BME280;20504;43.214;27.920;2023-04-16T08:11:41;101133.50;;;23.69;100.00
34243;BME280;20504;43.214;27.920;2023-04-16T08:14:06;101143.84;;;23.66;100.00
34243;BME280;20504;43.214;27.920;2023-04-16T08:16:31;101141.78;;;23.43;100.00
34243;BME280;20504;43.214;27.920;2023-04-16T08:18:57;101140.09;;;23.75;100.00
34243;BME280;20504;43.214;27.920;2023-04-16T08:21:25;101147.63;;;23.06;100.00
34243;BME280;20504;43.214;27.920;2023-04-16T08:23:52;101122.75;;;23.19;100.00
34243;BME280;20504;43.214;27.920;2023-04-16T08:26:18;101126.78;;;22.90;100.00
34243;BME280;20504;43.214;27.920;2023-04-16T08:28:43;101116.84;;;23.15;100.00
34243;BME280;20504;43.214;27.920;2023-04-16T08:31:09;101101.88;;;22.45;100.00
34243;BME280;20504;43.214;27.920;2023-04-16T08:33:34;101102.97;;;23.10;100.00
34243;BME280;20504;43.214;27.920;2023-04-16T08:36:00;101098.28;;;23.45;100.00
34243;BME280;20504;43.214;27.920;2023-04-16T08:38:25;101092.56;;;23.80;100.00
34243;BME280;20504;43.214;27.920;2023-04-16T08:40:52;101074.84;;;24.17;100.00
34243;BME280;20504;43.214;27.920;2023-04-16T08:43:20;101073.25;;;24.47;100.00
34243;BME280;20504;43.214;27.920;2023-04-16T08:45:47;101070.44;;;25.02;100.00
34243;BME280;20504;43.214;27.920;2023-04-16T08:48:13;101098.38;;;25.11;100.00
34243;BME280;20504;43.214;27.920;2023-04-16T08:50:40;101115.50;;;25.12;100.00
34243;BME280;20504;43.214;27.920;2023-04-16T08:53:08;101121.69;;;24.89;100.00
34243;BME280;20504;43.214;27.920;2023-04-16T08:55:36;101132.72;;;24.57;100.00
34243;BME280;20504;43.214;27.920;2023-04-16T08:58:08;101116.75;;;24.62;100.00
34243;BME280;20504;43.214;27.920;2023-04-16T09:00:36;101112.84;;;24.64;100.00
34243;BME280;20504;43.214;27.920;2023-04-16T09:03:02;101120.91;;;24.81;100.00
34243;BME280;20504;43.214;27.920;2023-04-16T09:05:28;101124.16;;;25.07;100.00
34243;BME280;20504;43.214;27.920;2023-04-16T09:07:54;101117.31;;;25.19;100.00
34243;BME280;20504;43.214;27.920;2023-04-16T09:10:19;101122.53;;;25.29;100.00
34243;BME280;20504;43.214;27.920;2023-04-16T09:12:45;101123.59;;;25.43;100.00
34243;BME280;20504;43.214;27.920;2023-04-16T09:15:12;101155.53;;;24.70;100.00
34243;BME280;20504;43.214;27.920;2023-04-16T09:17:38;101149.38;;;24.29;100.00
34243;BME280;20504;43.214;27.920;2023-04-16T09:20:05;101135.31;;;24.26;100.00
34243;BME280;20504;43.214;27.920;2023-04-16T09:22:33;101113.13;;;24.22;100.00
34243;BME280;20504;43.214;27.920;2023-04-16T09:24:59;101111.66;;;23.95;100.00
34243;BME280;20504;43.214;27.920;2023-04-16T09:27:24;101099.66;;;23.73;100.00
34243;BME280;20504;43.214;27.920;2023-04-16T09:29:51;101072.97;;;24.34;100.00
34243;BME280;20504;43.214;27.920;2023-04-16T09:32:23;101072.63;;;24.37;100.00
34243;BME280;20504;43.214;27.920;2023-04-16T09:35:00;101083.47;;;24.37;100.00
34243;BME280;20504;43.214;27.920;2023-04-16T09:37:30;101093.31;;;24.30;100.00
34243;BME280;20504;43.214;27.920;2023-04-16T09:40:00;101096.13;;;23.65;100.00
34243;BME280;20504;43.214;27.920;2023-04-16T09:42:28;101109.44;;;23.34;100.00
34243;BME280;20504;43.214;27.920;2023-04-16T09:44:54;101105.72;;;23.26;100.00
34243;BME280;20504;43.214;27.920;2023-04-16T09:47:21;101095.63;;;22.86;100.00
34243;BME280;20504;43.214;27.920;2023-04-16T09:49:46;101101.66;;;22.72;100.00
34243;BME280;20504;43.214;27.920;2023-04-16T09:52:13;101112.50;;;22.12;100.00
34243;BME280;20504;43.214;27.920;2023-04-16T09:54:59;101090.53;;;22.41;100.00
34243;BME280;20504;43.214;27.920;2023-04-16T09:57:26;101084.53;;;21.95;100.00
34243;BME280;20504;43.214;27.920;2023-04-16T10:00:01;101085.59;;;21.76;100.00
34243;BME280;20504;43.214;27.920;2023-04-16T10:02:28;101058.50;;;21.68;100.00
34243;BME280;20504;43.214;27.920;2023-04-16T10:04:54;101069.09;;;21.62;100.00
34243;BME280;20504;43.214;27.920;2023-04-16T10:07:20;101055.78;;;21.60;100.00
34243;BME280;20504;43.214;27.920;2023-04-16T10:09:47;101049.56;;;21.42;100.00
34243;BME280;20504;43.214;27.920;2023-04-16T10:12:13;101060.31;;;21.60;100.00
34243;BME280;20504;43.214;27.920;2023-04-16T10:14:40;101063.09;;;21.14;100.00
34243;BME280;20504;43.214;27.920;2023-04-16T10:17:06;101046.94;;;21.32;100.00
34243;BME280;20504;43.214;27.920;2023-04-16T10:19:32;101053.47;;;21.48;100.00
34243;BME280;20504;43.214;27.920;2023-04-16T10:21:58;101044.56;;;21.55;100.00
34243;BME280;20504;43.214;27.920;2023-04-16T10:24:31;101049.72;;;21.66;100.00
34243;BME280;20504;43.214;27.920;2023-04-16T10:26:57;101049.28;;;21.17;100.00
34243;BME280;20504;43.214;27.920;2023-04-16T10:29:24;101043.84;;;21.45;100.00
34243;BME280;20504;43.214;27.920;2023-04-16T10:31:50;101046.56;;;21.27;100.00
34243;BME280;20504;43.214;27.920;2023-04-16T10:34:19;101034.03;;;21.62;100.00
34243;BME280;20504;43.214;27.920;2023-04-16T10:36:49;101042.69;;;21.48;100.00
34243;BME280;20504;43.214;27.920;2023-04-16T10:39:18;101042.66;;;20.76;100.00
34243;BME280;20504;43.214;27.920;2023-04-16T10:41:44;101047.84;;;20.88;100.00
34243;BME280;20504;43.214;27.920;2023-04-16T10:44:10;101021.78;;;20.78;100.00
34243;BME280;20504;43.214;27.920;2023-04-16T10:46:45;101032.34;;;20.72;100.00
34243;BME280;20504;43.214;27.920;2023-04-16T10:51:39;101019.69;;;20.54;100.00
34243;BME280;20504;43.214;27.920;2023-04-16T10:56:36;101012.16;;;20.76;100.00
34243;BME280;20504;43.214;27.920;2023-04-16T10:59:05;101020.88;;;20.88;100.00
34243;BME280;20504;43.214;27.920;2023-04-16T11:01:32;101041.91;;;20.84;100.00
34243;BME280;20504;43.214;27.920;2023-04-16T11:03:59;101054.81;;;20.80;100.00
34243;BME280;20504;43.214;27.920;2023-04-16T11:06:26;101029.88;;;21.50;100.00
34243;BME280;20504;43.214;27.920;2023-04-16T11:08:52;101024.22;;;21.61;100.00
34243;BME280;20504;43.214;27.920;2023-04-16T11:11:18;100993.78;;;21.76;100.00
34243;BME280;20504;43.214;27.920;2023-04-16T11:13:44;101004.63;;;21.85;100.00
34243;BME280;20504;43.214;27.920;2023-04-16T11:16:12;101032.97;;;22.06;100.00
34243;BME280;20504;43.214;27.920;2023-04-16T11:18:38;101042.06;;;22.40;100.00
34243;BME280;20504;43.214;27.920;2023-04-16T11:21:10;101047.38;;;22.65;100.00
34243;BME280;20504;43.214;27.920;2023-04-16T11:23:50;101022.38;;;22.55;100.00
34243;BME280;20504;43.214;27.920;2023-04-16T11:26:27;101044.50;;;23.25;100.00
34243;BME280;20504;43.214;27.920;2023-04-16T11:28:54;101057.50;;;23.46;100.00
34243;BME280;20504;43.214;27.920;2023-04-16T11:31:22;101047.34;;;23.73;100.00
34243;BME280;20504;43.214;27.920;2023-04-16T11:33:48;101055.13;;;23.51;100.00
34243;BME280;20504;43.214;27.920;2023-04-16T11:36:13;101049.22;;;23.40;100.00
34243;BME280;20504;43.214;27.920;2023-04-16T11:38:39;101053.94;;;23.54;100.00
34243;BME280;20504;43.214;27.920;2023-04-16T11:41:08;101042.41;;;24.01;100.00
34243;BME280;20504;43.214;27.920;2023-04-16T11:43:35;101042.81;;;23.57;100.00
34243;BME280;20504;43.214;27.920;2023-04-16T11:46:05;101041.78;;;23.50;100.00
34243;BME280;20504;43.214;27.920;2023-04-16T11:51:12;101046.53;;;24.28;100.00
34243;BME280;20504;43.214;27.920;2023-04-16T11:53:48;101064.66;;;24.35;100.00
34243;BME280;20504;43.214;27.920;2023-04-16T11:56:13;101074.25;;;23.99;100.00
34243;BME280;20504;43.214;27.920;2023-04-16T11:58:40;101077.66;;;23.84;100.00
34243;BME280;20504;43.214;27.920;2023-04-16T12:01:07;101075.50;;;24.27;100.00
34243;BME280;20504;43.214;27.920;2023-04-16T12:03:40;101074.25;;;25.39;100.00
34243;BME280;20504;43.214;27.920;2023-04-16T12:06:10;101082.47;;;26.21;100.00
34243;BME280;20504;43.214;27.920;2023-04-16T12:08:35;101101.59;;;26.72;100.00
34243;BME280;20504;43.214;27.920;2023-04-16T12:11:01;101127.97;;;26.71;100.00
34243;BME280;20504;43.214;27.920;2023-04-16T12:13:26;101135.78;;;27.10;100.00
34243;BME280;20504;43.214;27.920;2023-04-16T12:15:54;101068.91;;;27.93;100.00
34243;BME280;20504;43.214;27.920;2023-04-16T12:18:25;101040.53;;;28.16;100.00
34243;BME280;20504;43.214;27.920;2023-04-16T12:20:53;101003.63;;;28.20;100.00
34243;BME280;20504;43.214;27.920;2023-04-16T12:23:27;101006.22;;;28.89;100.00
34243;BME280;20504;43.214;27.920;2023-04-16T12:25:54;101029.41;;;28.52;100.00
34243;BME280;20504;43.214;27.920;2023-04-16T12:28:33;101023.50;;;29.22;100.00
34243;BME280;20504;43.214;27.920;2023-04-16T12:30:59;101040.53;;;29.77;100.00
34243;BME280;20504;43.214;27.920;2023-04-16T12:33:25;101083.25;;;29.59;100.00